< Cyclone 200917 2009 Season Cyclone 200920 >
Cyclone 200918 (Ilsa)
General InformationTrack Information on Google MapsDetailed Wind InformationList of All Images || ResourceGoogle EarthGE AnimationAtom FeedGeoJSON
Detalied Best Track (Time Zone = UTC)
Year Month Day Hour Lat. Long. Pressure (hPa) Wind (kt) Class Image Chart
2009 3 15 00 -9.9 128.7 1006 20 2 Image --
2009 3 15 06 -10.1 127.9 1006 20 2 Image --
2009 3 15 12 -10.3 126.8 1006 20 2 Image --
2009 3 15 18 -10.5 125.7 1004 25 2 Image --
2009 3 16 00 -10.7 124.6 1004 25 2 Image --
2009 3 16 06 -11.1 123.3 1004 25 2 Image --
2009 3 16 12 -11.9 122.4 1004 25 2 Image --
2009 3 16 18 -12.1 121.4 1004 25 2 Image --
2009 3 17 00 -12.3 119.8 1004 25 2 Image --
2009 3 17 06 -12.7 118.1 1002 30 2 Image --
2009 3 17 12 -12.9 116.4 1002 30 2 Image --
2009 3 17 18 -13.0 114.7 1000 35 3 Image --
2009 3 18 00 -13.4 113.4 996 40 3 Image --
2009 3 18 06 -13.5 111.7 994 45 3 Image --
2009 3 18 12 -13.7 110.9 990 50 4 Image --
2009 3 18 18 -14.4 109.7 984 60 4 Image --
2009 3 19 00 -15.1 108.7 976 70 5 Image --
2009 3 19 06 -15.9 107.6 968 80 5 Image --
2009 3 19 12 -16.2 106.9 958 90 5 Image --
2009 3 19 18 -16.1 105.9 958 90 5 Image --
2009 3 20 00 -16.1 105.2 966 80 5 Image --
2009 3 20 06 -16.0 104.4 966 80 5 Image --
2009 3 20 12 -15.9 103.9 966 80 5 Image --
2009 3 20 18 -15.8 103.1 966 80 5 Image --
2009 3 21 00 -15.8 102.4 966 80 5 Image --
2009 3 21 06 -16.0 101.6 966 80 5 Image --
2009 3 21 12 -16.1 101.1 966 80 5 Image --
2009 3 21 18 -16.1 100.2 968 80 5 Image --
2009 3 22 00 -16.3 99.5 972 75 5 Image --
2009 3 22 06 -16.5 98.8 976 70 5 Image --
2009 3 22 12 -16.7 97.9 980 65 5 Image --
2009 3 22 18 -17.0 96.7 986 60 4 Image --
2009 3 23 00 -17.2 95.6 992 50 4 Image --
2009 3 23 06 -17.4 94.3 996 45 3 Image --
2009 3 23 12 -18.1 92.9 998 40 3 Image --
2009 3 23 18 -18.6 91.4 1000 35 3 Image --
2009 3 24 00 -19.1 90.1 1002 30 2 Image --
2009 3 24 06 -19.5 89.0 1002 25 2 Image --
< Cyclone 200917 2009 Season Cyclone 200920 >

Help